createdAt,value
2022-12-11T00:02:00.425Z,86.29
2022-12-11T00:04:27.845Z,85.96
2022-12-11T00:06:55.410Z,86.79
2022-12-11T00:09:23.100Z,86.56
2022-12-11T00:11:50.197Z,86.53
2022-12-11T00:14:17.748Z,86.91
2022-12-11T00:16:45.466Z,86.81
2022-12-11T00:19:13.850Z,86.79
2022-12-11T00:21:41.370Z,86.53
2022-12-11T00:24:09.144Z,86.66
2022-12-11T00:26:36.854Z,86.96
2022-12-11T00:29:04.210Z,86.16
2022-12-11T00:31:32.054Z,86.37
2022-12-11T00:34:01.367Z,87.08
2022-12-11T00:36:29.029Z,86.47
2022-12-11T00:38:56.220Z,86.19
2022-12-11T00:41:23.995Z,86.31
2022-12-11T00:43:51.250Z,86.39
2022-12-11T00:46:19.086Z,86.51
2022-12-11T00:48:46.624Z,86.07
2022-12-11T00:51:14.113Z,86.11
2022-12-11T00:53:41.665Z,86.15
2022-12-11T00:56:13.930Z,86.20
2022-12-11T00:58:41.415Z,86.46
2022-12-11T01:01:11.050Z,86.12
2022-12-11T01:03:38.670Z,85.87
2022-12-11T01:06:06.872Z,85.39
2022-12-11T01:08:38.522Z,86.31
2022-12-11T01:11:08.874Z,85.69
2022-12-11T01:13:36.171Z,85.92
2022-12-11T01:16:11.337Z,85.90
2022-12-11T01:18:38.677Z,85.56
2022-12-11T01:21:12.052Z,85.81
2022-12-11T01:23:40.280Z,86.13
2022-12-11T01:26:13.337Z,85.83
2022-12-11T01:28:41.617Z,86.90
2022-12-11T01:31:13.405Z,86.07
2022-12-11T01:33:41.284Z,86.57
2022-12-11T01:36:18.798Z,87.05
2022-12-11T01:38:47.244Z,86.54
2022-12-11T01:41:15.512Z,86.37
2022-12-11T01:44:08.802Z,87.29
2022-12-11T01:46:37.293Z,87.26
2022-12-11T01:49:08.294Z,86.98
2022-12-11T01:51:42.623Z,86.85
2022-12-11T01:54:12.487Z,86.61
2022-12-11T01:56:40.491Z,86.23
2022-12-11T01:59:10.073Z,87.25
2022-12-11T02:01:41.513Z,87.33
2022-12-11T02:04:10.075Z,87.77
2022-12-11T02:06:42.308Z,87.13
2022-12-11T02:09:13.310Z,87.99
2022-12-11T02:12:01.708Z,87.22
2022-12-11T02:14:50.426Z,86.41
2022-12-11T02:17:20.082Z,87.45
2022-12-11T02:20:02.084Z,87.56
2022-12-11T02:22:48.317Z,86.98
2022-12-11T02:25:27.826Z,87.82
2022-12-11T02:28:18.090Z,87.15
2022-12-11T02:30:52.510Z,86.93
2022-12-11T02:33:24.328Z,86.95
2022-12-11T02:35:51.834Z,87.40
2022-12-11T02:38:27.357Z,87.16
2022-12-11T02:40:56.223Z,88.30
2022-12-11T02:43:24.331Z,87.24
2022-12-11T02:45:52.307Z,87.21
2022-12-11T02:48:21.275Z,87.54
2022-12-11T02:50:52.100Z,87.35
2022-12-11T02:53:22.104Z,87.75
2022-12-11T02:55:53.102Z,88.25
2022-12-11T02:58:24.436Z,87.97
2022-12-11T03:00:51.871Z,88.15
2022-12-11T03:03:19.533Z,88.11
2022-12-11T03:05:47.213Z,87.38
2022-12-11T03:08:18.955Z,87.34
2022-12-11T03:10:46.543Z,86.61
2022-12-11T03:13:14.540Z,86.37
2022-12-11T03:15:58.324Z,86.69
2022-12-11T03:18:39.357Z,85.69
2022-12-11T03:21:20.249Z,85.57
2022-12-11T03:24:04.547Z,85.86
2022-12-11T03:26:36.119Z,85.27
2022-12-11T03:29:09.120Z,85.30
2022-12-11T03:31:36.552Z,85.06
2022-12-11T03:34:11.125Z,85.57
2022-12-11T03:36:39.558Z,85.09
2022-12-11T03:39:10.360Z,85.12
2022-12-11T03:41:39.128Z,85.39
2022-12-11T03:44:08.037Z,85.81
2022-12-11T03:46:38.469Z,85.59
2022-12-11T03:49:16.133Z,85.36
2022-12-11T03:51:45.380Z,85.24
2022-12-11T03:54:13.381Z,85.98
2022-12-11T03:56:41.273Z,86.38
2022-12-11T03:59:09.135Z,85.73
2022-12-11T04:01:36.658Z,85.77
2022-12-11T04:04:04.213Z,85.27
2022-12-11T04:06:32.041Z,85.28
2022-12-11T04:08:59.392Z,85.31
2022-12-11T04:11:35.793Z,85.28
2022-12-11T04:14:24.144Z,86.40
2022-12-11T04:16:51.686Z,85.30
2022-12-11T04:19:38.399Z,85.78
2022-12-11T04:22:34.579Z,85.61
2022-12-11T04:25:03.140Z,86.08
2022-12-11T04:27:49.063Z,86.09
2022-12-11T04:30:22.160Z,86.07
2022-12-11T04:32:50.561Z,86.70
2022-12-11T04:35:18.700Z,85.52
2022-12-11T04:37:46.600Z,85.65
2022-12-11T04:40:16.414Z,86.40
2022-12-11T04:42:43.967Z,86.45
2022-12-11T04:45:12.497Z,86.31
2022-12-11T04:47:41.081Z,86.41
2022-12-11T04:50:13.097Z,86.63
2022-12-11T04:52:40.535Z,87.09
2022-12-11T04:55:09.158Z,86.49
2022-12-11T04:57:37.577Z,86.50
2022-12-11T05:00:10.167Z,86.53
2022-12-11T05:02:40.224Z,87.31
2022-12-11T05:05:10.396Z,86.75
2022-12-11T05:07:38.340Z,86.26
2022-12-11T05:10:06.924Z,87.07
2022-12-11T05:12:34.174Z,87.24
2022-12-11T05:15:01.928Z,86.19
2022-12-11T05:17:29.816Z,85.90
2022-12-11T05:19:57.179Z,86.44
2022-12-11T05:22:24.821Z,86.86
2022-12-11T05:24:52.180Z,86.54
2022-12-11T05:27:19.935Z,86.17
2022-12-11T05:29:48.082Z,86.57
2022-12-11T05:32:15.823Z,86.71
2022-12-11T05:34:43.186Z,86.35
2022-12-11T05:37:10.827Z,86.61
2022-12-11T05:39:38.673Z,86.88
2022-12-11T05:42:06.456Z,87.95
2022-12-11T05:44:34.190Z,85.83
2022-12-11T05:47:02.122Z,86.59
2022-12-11T05:49:31.147Z,87.46
2022-12-11T05:51:59.194Z,86.89
2022-12-11T05:54:26.948Z,86.54
2022-12-11T05:56:55.196Z,87.97
2022-12-11T05:59:22.467Z,87.08
2022-12-11T06:01:49.829Z,86.89
2022-12-11T06:04:17.660Z,87.12
2022-12-11T06:06:45.200Z,87.36
2022-12-11T06:09:16.474Z,85.71
2022-12-11T06:11:43.959Z,86.30
2022-12-11T06:14:12.352Z,86.31
2022-12-11T06:16:40.552Z,86.29
2022-12-11T06:19:08.146Z,86.16
2022-12-11T06:21:36.208Z,86.44
2022-12-11T06:24:04.673Z,86.70
2022-12-11T06:26:32.855Z,87.00
2022-12-11T06:31:28.885Z,87.36
2022-12-11T06:33:56.859Z,85.35
2022-12-11T06:36:25.365Z,86.98
2022-12-11T06:38:53.656Z,86.80
2022-12-11T06:41:21.685Z,86.29
2022-12-11T06:43:49.978Z,86.10
2022-12-11T06:46:19.729Z,87.11
2022-12-11T06:48:48.376Z,87.21
2022-12-11T06:51:18.504Z,87.78
2022-12-11T06:53:53.376Z,86.90
2022-12-11T06:56:22.170Z,86.56
2022-12-11T06:58:49.987Z,86.20
2022-12-11T07:01:20.431Z,85.68
2022-12-11T07:03:48.624Z,85.63
2022-12-11T07:06:16.233Z,86.90
2022-12-11T07:08:44.142Z,85.60
2022-12-11T07:11:14.995Z,84.72
2022-12-11T07:13:43.168Z,85.14
2022-12-11T07:16:13.313Z,85.55
2022-12-11T07:18:42.958Z,85.27
2022-12-11T07:21:10.726Z,84.80
2022-12-11T07:23:38.889Z,83.95
2022-12-11T07:26:08.715Z,84.15
2022-12-11T07:28:36.717Z,84.97
2022-12-11T07:31:13.246Z,84.98
2022-12-11T07:33:41.720Z,83.81
2022-12-11T07:36:11.127Z,83.18
2022-12-11T07:38:38.897Z,83.43
2022-12-11T07:41:08.899Z,83.58
2022-12-11T07:43:37.539Z,82.45
2022-12-11T07:46:07.323Z,82.98
2022-12-11T07:48:39.543Z,82.17
2022-12-11T07:51:17.410Z,82.66
2022-12-11T07:53:47.762Z,82.57
2022-12-11T07:56:16.254Z,82.25
2022-12-11T07:58:44.551Z,81.47
2022-12-11T08:01:23.802Z,81.90
2022-12-11T08:03:51.414Z,82.62
2022-12-11T08:06:19.913Z,81.50
2022-12-11T08:08:47.721Z,81.43
2022-12-11T08:11:16.262Z,80.95
2022-12-11T08:13:44.160Z,82.16
2022-12-11T08:16:15.304Z,81.45
2022-12-11T08:18:43.761Z,80.99
2022-12-11T08:21:15.367Z,80.86
2022-12-11T08:23:42.922Z,81.09
2022-12-11T08:26:14.424Z,81.39
2022-12-11T08:28:42.077Z,81.71
2022-12-11T08:31:11.296Z,81.75
2022-12-11T08:33:40.026Z,80.78
2022-12-11T08:36:09.928Z,81.42
2022-12-11T08:38:37.766Z,81.01
2022-12-11T08:41:14.271Z,81.45
2022-12-11T08:43:42.029Z,80.86
2022-12-11T08:46:10.965Z,80.76
2022-12-11T08:48:39.937Z,81.41
2022-12-11T08:51:09.280Z,82.13
2022-12-11T08:53:37.441Z,80.94
2022-12-11T08:56:10.247Z,81.89
2022-12-11T08:58:38.727Z,81.75
2022-12-11T09:01:10.372Z,81.17
2022-12-11T09:03:38.782Z,80.57
2022-12-11T09:06:07.948Z,80.11
2022-12-11T09:08:35.949Z,80.92
2022-12-11T09:11:12.199Z,81.91
2022-12-11T09:13:40.446Z,80.44
2022-12-11T09:16:11.638Z,81.52
2022-12-11T09:18:39.954Z,81.08
2022-12-11T09:21:14.070Z,80.29
2022-12-11T09:23:42.432Z,80.33
2022-12-11T09:26:13.287Z,80.17
2022-12-11T09:28:46.275Z,79.71
2022-12-11T09:31:17.061Z,80.34
2022-12-11T09:33:45.078Z,78.86
2022-12-11T09:36:12.738Z,79.63
2022-12-11T09:38:40.456Z,80.01
2022-12-11T09:41:37.455Z,83.33
2022-12-11T09:44:33.394Z,78.94
2022-12-11T09:47:01.460Z,78.84
2022-12-11T09:49:41.927Z,79.10
2022-12-11T09:52:18.817Z,81.44
2022-12-11T09:54:59.286Z,80.40
2022-12-11T09:57:35.977Z,79.83
2022-12-11T10:00:20.718Z,78.86
2022-12-11T10:03:12.729Z,78.03
2022-12-11T10:05:52.641Z,77.72
2022-12-11T10:08:54.332Z,77.53
2022-12-11T10:11:40.493Z,79.27
2022-12-11T10:14:22.194Z,79.34
2022-12-11T10:16:52.947Z,78.11
2022-12-11T10:19:27.990Z,77.92
2022-12-11T10:21:56.304Z,77.11
2022-12-11T10:25:09.375Z,77.37
2022-12-11T10:27:34.842Z,78.11
2022-12-11T10:30:16.711Z,77.55
2022-12-11T10:33:06.999Z,77.52
2022-12-11T10:35:46.113Z,79.22
2022-12-11T10:38:22.115Z,77.09
2022-12-11T10:40:56.801Z,77.44
2022-12-11T10:43:35.004Z,77.18
2022-12-11T10:46:02.884Z,80.59
2022-12-11T10:48:31.010Z,78.71
2022-12-11T10:51:05.122Z,78.38
2022-12-11T10:53:33.010Z,78.61
2022-12-11T10:56:01.020Z,78.57
2022-12-11T10:58:34.566Z,77.98
2022-12-11T11:01:09.262Z,78.16
2022-12-11T11:03:44.320Z,78.35
2022-12-11T11:06:20.321Z,77.59
2022-12-11T11:08:50.498Z,78.87
2022-12-11T11:11:34.576Z,81.03
2022-12-11T11:14:18.023Z,77.83
2022-12-11T11:16:48.028Z,76.39
2022-12-11T11:19:23.139Z,76.50
2022-12-11T11:21:53.027Z,78.34
2022-12-11T11:24:41.275Z,77.07
2022-12-11T11:27:30.503Z,76.80
2022-12-11T11:30:01.695Z,76.50
2022-12-11T11:32:39.327Z,77.25
2022-12-11T11:35:13.337Z,75.79
2022-12-11T11:37:45.508Z,77.05
2022-12-11T11:40:18.892Z,75.87
2022-12-11T11:43:08.152Z,74.50
2022-12-11T11:45:44.897Z,76.29
2022-12-11T11:48:21.711Z,74.78
2022-12-11T11:50:51.157Z,75.28
2022-12-11T11:53:31.519Z,74.75
2022-12-11T11:56:06.338Z,75.38
2022-12-11T11:58:46.196Z,77.45
2022-12-11T12:01:17.718Z,75.01
2022-12-11T12:03:46.052Z,74.53
2022-12-11T12:06:50.778Z,74.85
2022-12-11T12:09:35.373Z,75.65
2022-12-11T12:12:05.724Z,74.41
2022-12-11T12:17:36.427Z,74.12
2022-12-11T12:20:20.347Z,74.11
2022-12-11T12:23:19.575Z,75.12
2022-12-11T12:25:53.348Z,75.29
2022-12-11T12:28:35.928Z,75.01
2022-12-11T12:31:36.810Z,74.49
2022-12-11T12:34:28.391Z,74.40
2022-12-11T12:37:01.938Z,74.32
2022-12-11T12:40:02.069Z,74.05
2022-12-11T12:42:52.705Z,74.82
2022-12-11T12:45:35.511Z,73.44
2022-12-11T12:48:03.355Z,73.23
2022-12-11T12:50:39.357Z,72.41
2022-12-11T12:53:07.946Z,72.33
2022-12-11T12:55:36.357Z,73.25
2022-12-11T12:58:06.741Z,74.15
2022-12-11T13:00:38.142Z,73.11
2022-12-11T13:03:21.331Z,72.49
2022-12-11T13:06:08.549Z,72.62
2022-12-11T13:08:44.862Z,72.87
2022-12-11T13:11:13.549Z,73.22
2022-12-11T13:13:50.194Z,72.27
2022-12-11T13:16:20.813Z,73.37
2022-12-11T13:18:48.654Z,72.95
2022-12-11T13:21:40.561Z,72.88
2022-12-11T13:24:20.325Z,73.73
2022-12-11T13:26:49.199Z,73.59
2022-12-11T13:29:37.561Z,73.95
2022-12-11T13:32:08.287Z,74.01
2022-12-11T13:34:40.107Z,73.37
2022-12-11T13:37:17.373Z,74.44
2022-12-11T13:39:47.110Z,73.41
2022-12-11T13:42:35.790Z,73.36
2022-12-11T13:45:04.208Z,72.82
2022-12-11T13:47:32.376Z,73.22
2022-12-11T13:50:27.211Z,72.61
2022-12-11T13:53:00.212Z,72.87
2022-12-11T13:55:30.380Z,72.83
2022-12-11T13:57:58.381Z,73.25
2022-12-11T14:00:28.383Z,73.29
2022-12-11T14:02:57.383Z,72.61
2022-12-11T14:05:24.917Z,72.30
2022-12-11T14:07:54.428Z,72.52
2022-12-11T14:10:24.741Z,73.50
2022-12-11T14:12:53.388Z,73.40
2022-12-11T14:15:21.132Z,72.68
2022-12-11T14:17:51.877Z,72.70
2022-12-11T14:20:24.976Z,73.59
2022-12-11T14:22:52.340Z,73.04
2022-12-11T14:25:28.544Z,73.46
2022-12-11T14:27:57.140Z,73.22
2022-12-11T14:30:27.531Z,73.56
2022-12-11T14:32:58.392Z,73.22
2022-12-11T14:35:35.551Z,73.13
2022-12-11T14:38:09.394Z,73.67
2022-12-11T14:40:40.254Z,72.93
2022-12-11T14:43:23.489Z,72.22
2022-12-11T14:45:56.506Z,73.39
2022-12-11T14:48:27.721Z,73.42
2022-12-11T14:50:58.326Z,72.77
2022-12-11T14:53:40.740Z,72.47
2022-12-11T14:56:14.330Z,72.95
2022-12-11T14:58:45.599Z,73.04
2022-12-11T15:01:35.068Z,73.14
2022-12-11T15:04:14.404Z,73.09
2022-12-11T15:06:50.164Z,72.26
2022-12-11T15:09:43.406Z,72.70
2022-12-11T15:12:13.500Z,73.14
2022-12-11T15:14:47.687Z,73.35
2022-12-11T15:17:15.606Z,73.26
2022-12-11T15:19:47.608Z,73.31
2022-12-11T15:22:16.174Z,72.89
2022-12-11T15:24:44.507Z,72.80
2022-12-11T15:27:34.415Z,72.19
2022-12-11T15:30:15.056Z,72.63
2022-12-11T15:32:42.613Z,72.31
2022-12-11T15:35:27.359Z,73.17
2022-12-11T15:37:56.512Z,72.76
2022-12-11T15:40:24.573Z,72.94
2022-12-11T15:42:52.874Z,72.45
2022-12-11T15:45:22.422Z,72.39
2022-12-11T15:47:50.365Z,71.80
2022-12-11T15:50:25.624Z,72.48
2022-12-11T15:52:54.369Z,74.19
2022-12-11T15:55:23.074Z,72.39
2022-12-11T15:58:02.491Z,71.66
2022-12-11T16:00:29.715Z,72.63
2022-12-11T16:02:57.660Z,72.82
2022-12-11T16:05:26.198Z,72.84
2022-12-11T16:07:54.946Z,72.52
2022-12-11T16:10:22.631Z,72.85
2022-12-11T16:12:50.313Z,72.66
2022-12-11T16:15:23.233Z,72.79
2022-12-11T16:17:59.502Z,73.27
2022-12-11T16:20:27.211Z,72.07
2022-12-11T16:22:54.319Z,72.23
2022-12-11T16:25:21.504Z,71.77
2022-12-11T16:27:48.629Z,72.31
2022-12-11T16:30:16.394Z,71.69
2022-12-11T16:32:44.394Z,71.61
2022-12-11T16:35:11.799Z,71.12
2022-12-11T16:37:39.508Z,70.91
2022-12-11T16:40:07.557Z,70.94
2022-12-11T16:42:35.221Z,70.89
2022-12-11T16:45:08.700Z,70.81
2022-12-11T16:47:36.109Z,70.62
2022-12-11T16:50:03.646Z,70.61
2022-12-11T16:52:32.373Z,72.28
2022-12-11T16:54:59.375Z,70.81
2022-12-11T16:57:26.519Z,70.65
2022-12-11T16:59:54.077Z,71.73
2022-12-11T17:02:21.395Z,71.40
2022-12-11T17:04:53.627Z,71.38
2022-12-11T17:07:21.418Z,71.34
2022-12-11T17:09:48.655Z,71.73
2022-12-11T17:12:16.128Z,71.52
2022-12-11T17:14:43.528Z,71.41
2022-12-11T17:17:10.857Z,71.95
2022-12-11T17:19:37.940Z,71.85
2022-12-11T17:22:05.401Z,71.71
2022-12-11T17:24:32.663Z,71.07
2022-12-11T17:27:00.453Z,71.24
2022-12-11T17:29:27.533Z,70.67
2022-12-11T17:31:55.141Z,70.08
2022-12-11T17:34:22.458Z,70.39
2022-12-11T17:36:49.778Z,70.77
2022-12-11T17:39:17.402Z,70.39
2022-12-11T17:41:44.785Z,70.17
2022-12-11T17:44:12.670Z,70.75
2022-12-11T17:46:39.910Z,70.87
2022-12-11T17:49:07.153Z,71.13
2022-12-11T17:51:34.447Z,71.00
2022-12-11T17:54:01.676Z,71.14
2022-12-11T17:56:29.325Z,73.11
2022-12-11T17:58:56.966Z,70.84
2022-12-11T18:01:24.512Z,72.32
2022-12-11T18:03:52.198Z,71.48
2022-12-11T18:06:19.420Z,72.26
2022-12-11T18:08:46.965Z,71.73
2022-12-11T18:11:16.976Z,72.85
2022-12-11T18:13:45.385Z,70.98
2022-12-11T18:16:15.240Z,72.27
2022-12-11T18:18:42.426Z,72.05
2022-12-11T18:21:13.469Z,71.36
2022-12-11T18:23:40.690Z,70.95
2022-12-11T18:26:08.180Z,72.52
2022-12-11T18:28:35.563Z,73.14
2022-12-11T18:31:03.748Z,72.48
2022-12-11T18:33:32.372Z,73.09
2022-12-11T18:35:59.567Z,72.29
2022-12-11T18:38:27.190Z,72.69
2022-12-11T18:40:54.441Z,73.24
2022-12-11T18:43:21.641Z,72.55
2022-12-11T18:45:49.193Z,72.48
2022-12-11T18:48:16.572Z,73.60
2022-12-11T18:50:46.002Z,74.26
2022-12-11T18:53:13.577Z,74.01
2022-12-11T18:55:43.265Z,73.77
2022-12-11T18:58:11.626Z,73.78
2022-12-11T19:00:40.877Z,73.99
2022-12-11T19:03:09.205Z,73.66
2022-12-11T19:05:36.581Z,74.28
2022-12-11T19:08:04.481Z,73.43
2022-12-11T19:10:31.809Z,73.50
2022-12-11T19:12:59.459Z,73.42
2022-12-11T19:15:27.844Z,73.58
2022-12-11T19:17:55.216Z,72.88
2022-12-11T19:20:47.980Z,73.87
2022-12-11T19:23:10.466Z,73.38
2022-12-11T19:25:47.849Z,73.44
2022-12-11T19:28:15.642Z,73.66
2022-12-11T19:30:47.434Z,72.93
2022-12-11T19:33:15.517Z,72.73
2022-12-11T19:35:43.473Z,72.91
2022-12-11T19:38:11.328Z,73.31
2022-12-11T19:40:42.650Z,72.58
2022-12-11T19:43:10.235Z,73.53
2022-12-11T19:45:37.526Z,72.67
2022-12-11T19:48:05.043Z,72.58
2022-12-11T19:50:32.604Z,72.74
2022-12-11T19:53:00.336Z,74.12
2022-12-11T19:55:27.532Z,74.82
2022-12-11T19:57:55.731Z,75.70
2022-12-11T20:00:23.490Z,75.44
2022-12-11T20:02:51.449Z,75.57
2022-12-11T20:05:19.052Z,76.19
2022-12-11T20:07:46.675Z,76.18
2022-12-11T20:10:14.349Z,76.57
2022-12-11T20:12:41.736Z,77.82
2022-12-11T20:15:09.691Z,77.12
2022-12-11T20:17:38.277Z,78.10
2022-12-11T20:20:06.460Z,77.90
2022-12-11T20:22:33.618Z,77.29
2022-12-11T20:25:00.889Z,76.38
2022-12-11T20:27:28.555Z,76.43
2022-12-11T20:29:56.070Z,76.97
2022-12-11T20:32:23.558Z,76.16
2022-12-11T20:34:51.075Z,76.14
2022-12-11T20:37:18.469Z,76.17
2022-12-11T20:39:45.686Z,75.73
2022-12-11T20:42:13.473Z,76.61
2022-12-11T20:44:45.670Z,76.13
2022-12-11T20:47:16.894Z,76.73
2022-12-11T20:49:44.477Z,75.85
2022-12-11T20:52:11.690Z,74.92
2022-12-11T20:54:39.287Z,75.20
2022-12-11T20:57:06.634Z,76.60
2022-12-11T20:59:34.091Z,76.85
2022-12-11T21:02:01.745Z,75.80
2022-12-11T21:04:29.486Z,76.53
2022-12-11T21:06:56.916Z,76.28
2022-12-11T21:09:26.700Z,77.21
2022-12-11T21:11:54.296Z,77.56
2022-12-11T21:14:21.702Z,78.23
2022-12-11T21:16:49.437Z,78.85
2022-12-11T21:19:17.271Z,78.54
2022-12-11T21:21:45.500Z,78.45
2022-12-11T21:24:27.538Z,78.91
2022-12-11T21:26:57.544Z,78.96
2022-12-11T21:29:26.649Z,78.53
2022-12-11T21:31:54.376Z,79.22
2022-12-11T21:34:25.213Z,79.09
2022-12-11T21:36:56.881Z,80.55
2022-12-11T21:39:25.528Z,79.54
2022-12-11T21:41:52.684Z,79.10
2022-12-11T21:47:07.406Z,80.03
2022-12-11T21:49:35.778Z,80.20
2022-12-11T21:52:03.587Z,80.52
2022-12-11T21:54:31.128Z,80.79
2022-12-11T21:56:58.329Z,80.26
2022-12-11T21:59:25.625Z,80.86
2022-12-11T22:01:52.924Z,82.92
2022-12-11T22:04:20.730Z,82.13
2022-12-11T22:06:48.442Z,80.82
2022-12-11T22:09:16.640Z,80.91
2022-12-11T22:11:45.555Z,81.12
2022-12-11T22:14:14.628Z,81.27
2022-12-11T22:16:42.795Z,81.03
2022-12-11T22:19:10.660Z,81.93
2022-12-11T22:21:38.530Z,81.21
2022-12-11T22:24:06.432Z,81.13
2022-12-11T22:26:33.744Z,82.25
2022-12-11T22:29:01.420Z,82.17
2022-12-11T22:31:28.748Z,81.19
2022-12-11T22:33:56.538Z,81.93
2022-12-11T22:36:24.748Z,81.74
2022-12-11T22:38:52.540Z,82.17
2022-12-11T22:41:28.363Z,81.08
2022-12-11T22:43:55.842Z,82.23
2022-12-11T22:46:26.544Z,81.34
2022-12-11T22:48:54.364Z,81.59
2022-12-11T22:51:21.985Z,82.06
2022-12-11T22:53:49.656Z,82.73
2022-12-11T22:56:17.656Z,81.92
2022-12-11T22:58:45.174Z,82.62
2022-12-11T23:01:15.373Z,81.86
2022-12-11T23:03:42.833Z,82.51
2022-12-11T23:06:12.769Z,82.46
2022-12-11T23:08:40.798Z,83.55
2022-12-11T23:11:24.457Z,81.41
2022-12-11T23:13:52.479Z,82.62
2022-12-11T23:16:20.412Z,82.65
2022-12-11T23:18:48.009Z,82.29
2022-12-11T23:21:15.672Z,83.07
2022-12-11T23:23:43.615Z,82.15
2022-12-11T23:26:12.784Z,82.49
2022-12-11T23:28:41.196Z,82.15
2022-12-11T23:31:08.974Z,82.20
2022-12-11T23:33:36.680Z,82.32
2022-12-11T23:36:04.782Z,82.02
2022-12-11T23:38:32.684Z,81.64
2022-12-11T23:41:01.496Z,81.41
2022-12-11T23:43:28.792Z,81.26
2022-12-11T23:45:56.803Z,81.48
2022-12-11T23:48:24.793Z,81.30
2022-12-11T23:50:52.692Z,80.47
2022-12-11T23:53:20.584Z,80.68
2022-12-11T23:55:48.010Z,80.35
2022-12-11T23:58:15.698Z,81.57
